createdAt,value
2019-06-01T00:00:11.489Z,100.00
2019-06-01T00:01:04.002Z,112.50
2019-06-01T00:02:02.979Z,110.60
2019-06-01T00:03:02.983Z,108.40
2019-06-01T00:04:02.963Z,138.10
2019-06-01T00:05:02.977Z,123.20
2019-06-01T00:06:02.943Z,84.70
2019-06-01T00:07:02.921Z,77.90
2019-06-01T00:08:02.925Z,86.80
2019-06-01T00:09:02.899Z,100.40
2019-06-01T00:10:02.894Z,84.00
2019-06-01T00:11:02.883Z,91.90
2019-06-01T00:12:02.864Z,108.50
2019-06-01T00:13:02.887Z,123.20
2019-06-01T00:14:02.843Z,141.60
2019-06-01T00:15:02.839Z,121.80
2019-06-01T00:16:02.834Z,108.90
2019-06-01T00:17:02.822Z,104.80
2019-06-01T00:18:02.822Z,98.00
2019-06-01T00:19:02.789Z,97.80
2019-06-01T00:20:02.781Z,92.70
2019-06-01T00:21:02.772Z,74.20
2019-06-01T00:22:02.768Z,116.80
2019-06-01T00:23:02.741Z,82.30
2019-06-01T00:24:02.738Z,85.50
2019-06-01T00:25:02.769Z,80.40
2019-06-01T00:26:02.718Z,87.40
2019-06-01T00:27:02.701Z,84.00
2019-06-01T00:28:02.685Z,100.00
2019-06-01T00:29:02.676Z,100.60
2019-06-01T00:30:02.678Z,102.60
2019-06-01T00:31:02.682Z,100.20
2019-06-01T00:32:02.653Z,105.20
2019-06-01T00:33:02.653Z,94.90
2019-06-01T00:34:02.621Z,89.60
2019-06-01T00:35:02.626Z,106.00
2019-06-01T00:36:02.596Z,105.00
2019-06-01T00:37:02.599Z,85.70
2019-06-01T00:38:02.583Z,84.60
2019-06-01T00:39:02.572Z,73.70
2019-06-01T00:40:02.577Z,80.90
2019-06-01T00:41:02.545Z,104.80
2019-06-01T00:42:02.571Z,93.10
2019-06-01T00:43:02.525Z,118.70
2019-06-01T00:44:02.516Z,133.10
2019-06-01T00:45:02.502Z,121.90
2019-06-01T00:46:02.498Z,118.20
2019-06-01T00:47:02.481Z,166.00
2019-06-01T00:48:02.474Z,158.70
2019-06-01T00:49:02.459Z,161.70
2019-06-01T00:50:02.453Z,160.00
2019-06-01T00:51:02.436Z,149.70
2019-06-01T00:52:02.423Z,103.10
2019-06-01T00:53:02.435Z,127.10
2019-06-01T00:54:02.395Z,78.40
2019-06-01T00:55:02.386Z,130.10
2019-06-01T00:56:02.371Z,103.30
2019-06-01T00:57:02.361Z,130.90
2019-06-01T00:58:02.365Z,81.90
2019-06-01T00:59:02.345Z,84.90
2019-06-01T01:00:02.333Z,60.30
2019-06-01T01:01:02.316Z,73.70
2019-06-01T01:02:02.309Z,83.50
2019-06-01T01:03:02.309Z,87.80
2019-06-01T01:04:02.288Z,83.40
2019-06-01T01:05:02.273Z,66.60
2019-06-01T01:06:02.275Z,89.00
2019-06-01T01:07:02.251Z,124.60
2019-06-01T01:08:02.249Z,105.60
2019-06-01T01:09:02.235Z,129.00
2019-06-01T01:10:02.223Z,82.00
2019-06-01T01:11:02.214Z,104.80
2019-06-01T01:12:02.201Z,75.50
2019-06-01T01:13:02.228Z,72.00
2019-06-01T01:14:02.183Z,71.20
2019-06-01T01:15:02.387Z,98.80
2019-06-01T01:16:02.161Z,71.70
2019-06-01T01:17:02.163Z,61.80
2019-06-01T01:18:02.142Z,55.50
2019-06-01T01:19:02.134Z,78.10
2019-06-01T01:20:02.170Z,88.10
2019-06-01T01:21:02.155Z,93.20
2019-06-01T01:22:02.095Z,71.30
2019-06-01T01:23:02.086Z,79.70
2019-06-01T01:24:02.092Z,97.30
2019-06-01T01:25:02.067Z,87.00
2019-06-01T01:26:02.070Z,88.40
2019-06-01T01:27:02.043Z,78.20
2019-06-01T01:28:02.041Z,95.70
2019-06-01T01:29:02.040Z,118.00
2019-06-01T01:30:02.031Z,92.80
2019-06-01T01:31:12.831Z,88.30
2019-06-01T01:32:02.983Z,97.00
2019-06-01T01:33:01.974Z,110.60
2019-06-01T01:34:01.962Z,113.20
2019-06-01T01:35:02.159Z,94.30
2019-06-01T01:36:02.029Z,110.10
2019-06-01T01:37:01.935Z,101.20
2019-06-01T01:38:01.927Z,97.90
2019-06-01T01:39:01.913Z,111.20
2019-06-01T01:40:01.950Z,139.60
2019-06-01T01:41:01.894Z,121.40
2019-06-01T01:42:01.883Z,115.10
2019-06-01T01:43:01.881Z,87.80
2019-06-01T01:44:01.854Z,103.10
2019-06-01T01:45:01.860Z,110.30
2019-06-01T01:46:01.841Z,98.30
2019-06-01T01:47:01.830Z,80.40
2019-06-01T01:48:01.812Z,82.80
2019-06-01T01:49:02.590Z,82.20
2019-06-01T01:50:03.084Z,78.40
2019-06-01T01:51:02.717Z,85.40
2019-06-01T01:52:01.774Z,83.80
2019-06-01T01:53:03.191Z,85.80
2019-06-01T01:54:04.214Z,68.40
2019-06-01T01:55:03.268Z,55.30
2019-06-01T01:56:01.727Z,69.60
2019-06-01T01:57:02.506Z,72.60
2019-06-01T01:58:01.820Z,78.50
2019-06-01T01:59:04.135Z,96.60
2019-06-01T02:00:01.860Z,74.50
2019-06-01T02:01:16.943Z,90.80
2019-06-01T02:02:03.021Z,97.20
2019-06-01T02:03:02.335Z,101.90
2019-06-01T02:04:03.214Z,100.60
2019-06-01T02:05:02.195Z,95.00
2019-06-01T02:06:01.623Z,95.30
2019-06-01T02:07:02.391Z,109.30
2019-06-01T02:08:02.023Z,112.40
2019-06-01T02:09:01.930Z,106.10
2019-06-01T02:10:01.954Z,117.60
2019-06-01T02:11:01.851Z,103.20
2019-06-01T02:12:01.957Z,104.60
2019-06-01T02:13:02.223Z,105.40
2019-06-01T02:14:02.115Z,91.50
2019-06-01T02:15:02.104Z,86.00
2019-06-01T02:16:02.595Z,99.30
2019-06-01T02:17:02.499Z,68.50
2019-06-01T02:18:02.717Z,97.50
2019-06-01T02:19:02.419Z,73.00
2019-06-01T02:20:02.584Z,62.10
2019-06-01T02:21:02.692Z,63.40
2019-06-01T02:22:03.552Z,59.10
2019-06-01T02:23:01.444Z,58.90
2019-06-01T02:24:01.441Z,81.40
2019-06-01T02:25:02.138Z,72.10
2019-06-01T02:26:01.421Z,92.60
2019-06-01T02:27:01.466Z,105.60
2019-06-01T02:28:01.497Z,82.60
2019-06-01T02:29:02.495Z,79.40
2019-06-01T02:30:04.805Z,123.90
2019-06-01T02:31:02.095Z,92.20
2019-06-01T02:32:02.437Z,126.60
2019-06-01T02:33:02.433Z,115.80
2019-06-01T02:34:03.390Z,163.20
2019-06-01T02:35:02.637Z,122.40
2019-06-01T02:36:03.446Z,112.90
2019-06-01T02:37:02.409Z,111.90
2019-06-01T02:38:03.094Z,79.80
2019-06-01T02:39:03.074Z,56.20
2019-06-01T02:40:03.130Z,54.20
2019-06-01T02:41:03.083Z,54.00
2019-06-01T02:42:03.259Z,52.00
2019-06-01T02:43:02.103Z,56.80
2019-06-01T02:44:01.766Z,61.40
2019-06-01T02:45:01.743Z,66.60
2019-06-01T02:46:02.763Z,70.30
2019-06-01T02:47:01.627Z,97.70
2019-06-01T02:48:01.697Z,148.00
2019-06-01T02:49:02.072Z,129.10
2019-06-01T02:50:01.372Z,88.30
2019-06-01T02:51:01.844Z,123.00
2019-06-01T02:52:01.404Z,64.90
2019-06-01T02:53:01.518Z,70.90
2019-06-01T02:54:01.744Z,84.70
2019-06-01T02:55:02.264Z,74.30
2019-06-01T02:56:02.088Z,83.70
2019-06-01T02:57:02.130Z,72.40
2019-06-01T02:58:02.255Z,57.40
2019-06-01T02:59:02.276Z,63.00
2019-06-01T03:00:01.071Z,69.80
2019-06-01T03:01:01.032Z,83.90
2019-06-01T03:02:07.346Z,88.90
2019-06-01T03:03:02.857Z,57.60
2019-06-01T03:04:01.428Z,69.90
2019-06-01T03:05:01.246Z,72.90
2019-06-01T03:06:01.396Z,57.30
2019-06-01T03:07:03.788Z,103.30
2019-06-01T03:08:01.348Z,146.40
2019-06-01T03:09:01.849Z,193.20
2019-06-01T03:10:00.973Z,199.20
2019-06-01T03:11:01.790Z,210.70
2019-06-01T03:12:02.355Z,182.50
2019-06-01T03:13:02.029Z,207.30
2019-06-01T03:14:00.880Z,152.20
2019-06-01T03:15:00.885Z,130.50
2019-06-01T03:16:00.865Z,87.80
2019-06-01T03:17:01.882Z,100.40
2019-06-01T03:18:01.511Z,83.10
2019-06-01T03:19:01.914Z,113.20
2019-06-01T03:20:02.560Z,102.60
2019-06-01T03:21:01.651Z,83.60
2019-06-01T03:22:04.823Z,78.50
2019-06-01T03:23:01.756Z,135.70
2019-06-01T03:24:01.869Z,137.60
2019-06-01T03:25:02.078Z,103.80
2019-06-01T03:26:02.012Z,114.80
2019-06-01T03:27:02.879Z,86.30
2019-06-01T03:28:02.076Z,72.10
2019-06-01T03:29:00.726Z,96.50
2019-06-01T03:30:00.709Z,87.40
2019-06-01T03:31:01.270Z,98.70
2019-06-01T03:32:19.111Z,109.50
2019-06-01T03:33:03.336Z,83.50
2019-06-01T03:34:01.538Z,84.20
2019-06-01T03:35:00.653Z,116.40
2019-06-01T03:36:00.772Z,156.80
2019-06-01T03:37:00.988Z,144.60
2019-06-01T03:38:00.840Z,126.50
2019-06-01T03:39:02.021Z,83.60
2019-06-01T03:40:01.075Z,216.60
2019-06-01T03:41:00.596Z,174.70
2019-06-01T03:42:01.008Z,115.90
2019-06-01T03:43:00.567Z,143.80
2019-06-01T03:44:00.562Z,159.80
2019-06-01T03:45:01.372Z,164.20
2019-06-01T03:46:00.594Z,164.80
2019-06-01T03:47:01.513Z,120.40
2019-06-01T03:48:00.590Z,143.10
2019-06-01T03:49:01.437Z,146.60
2019-06-01T03:50:00.752Z,114.00
2019-06-01T03:51:01.574Z,118.40
2019-06-01T03:52:00.652Z,95.00
2019-06-01T03:53:01.648Z,107.80
2019-06-01T03:54:00.858Z,94.20
2019-06-01T03:55:01.736Z,98.40
2019-06-01T03:56:01.621Z,113.70
2019-06-01T03:57:00.884Z,134.70
2019-06-01T03:58:00.949Z,116.50
2019-06-01T03:59:00.976Z,112.50
2019-06-01T04:00:01.035Z,129.50
2019-06-01T04:01:00.908Z,119.60
2019-06-01T04:02:00.861Z,105.80
2019-06-01T04:03:00.835Z,77.30
2019-06-01T04:04:00.961Z,103.70
2019-06-01T04:05:01.180Z,125.00
2019-06-01T04:06:01.188Z,103.50
2019-06-01T04:07:01.273Z,134.50
2019-06-01T04:08:01.343Z,116.50
2019-06-01T04:09:01.587Z,98.00
2019-06-01T04:10:01.485Z,130.70
2019-06-01T04:11:01.317Z,108.60
2019-06-01T04:12:01.360Z,88.50
2019-06-01T04:13:01.355Z,76.70
2019-06-01T04:14:01.426Z,87.60
2019-06-01T04:15:00.240Z,76.60
2019-06-01T04:16:00.224Z,75.70
2019-06-01T04:17:00.210Z,81.80
2019-06-01T04:18:00.199Z,87.20
2019-06-01T04:19:00.192Z,73.30
2019-06-01T04:20:00.186Z,74.50
2019-06-01T04:21:00.163Z,85.00
2019-06-01T04:22:00.157Z,96.20
2019-06-01T04:23:00.146Z,69.40
2019-06-01T04:24:00.146Z,89.90
2019-06-01T04:25:00.126Z,77.10
2019-06-01T04:26:00.123Z,78.80
2019-06-01T04:27:00.100Z,80.50
2019-06-01T04:28:00.097Z,67.60
2019-06-01T04:29:00.118Z,74.80
2019-06-01T04:30:00.067Z,85.90
2019-06-01T04:31:00.075Z,70.20
2019-06-01T04:32:00.055Z,71.40
2019-06-01T04:33:00.046Z,88.60
2019-06-01T04:34:00.027Z,84.80
2019-06-01T04:35:00.018Z,72.70
2019-06-01T04:36:00.000Z,63.70
2019-06-01T04:36:59.993Z,75.90
2019-06-01T04:37:59.994Z,74.30
2019-06-01T04:38:59.963Z,78.40
2019-06-01T04:39:59.967Z,64.40
2019-06-01T04:40:59.945Z,59.60
2019-06-01T04:41:59.948Z,64.20
2019-06-01T04:42:59.924Z,63.00
2019-06-01T04:43:59.913Z,74.90
2019-06-01T04:44:59.938Z,67.40
2019-06-01T04:45:59.889Z,69.10
2019-06-01T04:46:59.875Z,69.50
2019-06-01T04:47:59.865Z,68.00
2019-06-01T04:48:59.863Z,63.70
2019-06-01T04:49:59.840Z,62.30
2019-06-01T04:50:59.842Z,65.70
2019-06-01T04:51:59.818Z,67.60
2019-06-01T04:52:59.806Z,57.50
2019-06-01T04:53:59.803Z,67.10
2019-06-01T04:54:59.790Z,57.00
2019-06-01T04:55:59.795Z,59.70
2019-06-01T04:56:59.771Z,61.20
2019-06-01T04:57:59.752Z,65.60
2019-06-01T04:58:59.742Z,57.50
2019-06-01T04:59:59.735Z,57.60
2019-06-01T05:00:59.728Z,58.00
2019-06-01T05:01:59.717Z,60.70
2019-06-01T05:03:05.422Z,65.70
2019-06-01T05:04:00.686Z,60.10
2019-06-01T05:04:59.681Z,62.40
2019-06-01T05:05:59.705Z,62.40
2019-06-01T05:06:59.657Z,63.70
2019-06-01T05:07:59.647Z,57.50
2019-06-01T05:08:59.632Z,56.50
2019-06-01T05:09:59.627Z,58.90
2019-06-01T05:10:59.618Z,57.30
2019-06-01T05:11:59.611Z,58.10
2019-06-01T05:12:59.587Z,57.40
2019-06-01T05:13:59.577Z,56.20
2019-06-01T05:14:59.579Z,59.30
2019-06-01T05:15:59.575Z,57.70
2019-06-01T05:16:59.565Z,58.10
2019-06-01T05:17:59.538Z,59.70
2019-06-01T05:18:59.522Z,60.00
2019-06-01T05:19:59.518Z,54.90
2019-06-01T05:20:59.500Z,53.20
2019-06-01T05:21:59.500Z,55.40
2019-06-01T05:22:59.508Z,58.10
2019-06-01T05:23:59.472Z,57.80
2019-06-01T05:24:59.465Z,58.00
2019-06-01T05:25:59.447Z,59.20
2019-06-01T05:26:59.435Z,57.10
2019-06-01T05:27:59.429Z,59.80
2019-06-01T05:28:59.434Z,56.20
2019-06-01T05:29:59.407Z,54.90
2019-06-01T05:30:59.394Z,53.80
2019-06-01T05:31:59.387Z,57.10
2019-06-01T05:32:59.374Z,56.40
2019-06-01T05:33:59.370Z,55.30
2019-06-01T05:34:59.346Z,58.90
2019-06-01T05:35:59.334Z,52.30
2019-06-01T05:36:59.324Z,56.00
2019-06-01T05:37:59.318Z,55.10
2019-06-01T05:38:59.333Z,49.10
2019-06-01T05:39:59.295Z,55.50
2019-06-01T05:40:59.289Z,53.00
2019-06-01T05:41:59.276Z,52.00
2019-06-01T05:42:59.259Z,55.60
2019-06-01T05:43:59.262Z,53.70
2019-06-01T05:44:59.267Z,54.40
2019-06-01T05:45:59.228Z,53.50
2019-06-01T05:46:59.223Z,53.60
2019-06-01T05:47:59.211Z,54.40
2019-06-01T05:48:59.200Z,50.00
2019-06-01T05:49:59.188Z,53.10
2019-06-01T05:50:59.175Z,54.30
2019-06-01T05:51:59.172Z,52.70
2019-06-01T05:52:59.152Z,53.70
2019-06-01T05:53:59.140Z,51.50
2019-06-01T05:54:59.128Z,51.70
2019-06-01T05:55:59.136Z,49.30
2019-06-01T05:56:59.113Z,52.90
2019-06-01T05:57:59.104Z,55.40
2019-06-01T05:58:59.092Z,53.30
2019-06-01T05:59:59.099Z,51.70
2019-06-01T06:00:59.196Z,51.20
2019-06-01T06:01:59.056Z,53.40
2019-06-01T06:02:59.049Z,54.40
2019-06-01T06:03:59.039Z,52.40
2019-06-01T06:04:59.027Z,52.70
2019-06-01T06:05:59.037Z,52.80
2019-06-01T06:06:59.007Z,50.20
2019-06-01T06:07:58.989Z,50.00
2019-06-01T06:08:58.984Z,52.20
2019-06-01T06:09:59.024Z,49.40
2019-06-01T06:10:58.955Z,48.00
2019-06-01T06:11:58.953Z,49.30
2019-06-01T06:12:58.940Z,49.00
2019-06-01T06:13:58.971Z,51.80
2019-06-01T06:14:58.939Z,50.10
2019-06-01T06:15:58.914Z,50.50
2019-06-01T06:16:58.939Z,51.70
2019-06-01T06:17:58.884Z,52.90
2019-06-01T06:18:58.918Z,52.00
2019-06-01T06:19:58.857Z,51.00
2019-06-01T06:20:58.851Z,51.30
2019-06-01T06:21:58.841Z,48.70
2019-06-01T06:22:58.845Z,48.70
2019-06-01T06:23:58.813Z,49.20
2019-06-01T06:24:58.818Z,51.10
2019-06-01T06:25:58.799Z,49.60
2019-06-01T06:26:58.787Z,51.00
2019-06-01T06:27:58.783Z,50.70
2019-06-01T06:28:58.764Z,49.50
2019-06-01T06:29:58.901Z,47.40
2019-06-01T06:30:58.749Z,48.50
2019-06-01T06:31:58.732Z,47.90
2019-06-01T06:32:58.756Z,50.80
2019-06-01T06:33:58.702Z,50.70
2019-06-01T06:34:58.697Z,47.10
2019-06-01T06:35:58.687Z,49.50
2019-06-01T06:36:58.669Z,46.10
2019-06-01T06:37:58.670Z,48.20
2019-06-01T06:38:58.657Z,49.80
2019-06-01T06:39:58.657Z,47.80
2019-06-01T06:40:58.656Z,48.60
2019-06-01T06:41:58.622Z,47.00
2019-06-01T06:42:58.604Z,48.30
2019-06-01T06:43:58.593Z,47.70
2019-06-01T06:44:58.705Z,49.30
2019-06-01T06:45:58.643Z,48.40
2019-06-01T06:46:58.556Z,46.20
2019-06-01T06:47:58.553Z,45.20
2019-06-01T06:48:58.575Z,48.40
2019-06-01T06:49:58.540Z,49.20
2019-06-01T06:50:58.522Z,48.40
2019-06-01T06:51:58.502Z,48.70
2019-06-01T06:52:58.496Z,49.20
2019-06-01T06:53:58.490Z,48.00
2019-06-01T06:54:58.483Z,44.00
2019-06-01T06:55:58.461Z,45.20
2019-06-01T06:56:58.454Z,45.20
2019-06-01T06:57:58.454Z,44.70
2019-06-01T06:58:58.431Z,44.90
2019-06-01T06:59:58.439Z,47.00
2019-06-01T07:00:58.408Z,45.30
2019-06-01T07:01:58.409Z,43.60
2019-06-01T07:02:58.388Z,44.90
2019-06-01T07:04:11.777Z,46.40
2019-06-01T07:04:59.376Z,43.40
2019-06-01T07:05:58.370Z,43.60
2019-06-01T07:06:58.345Z,41.80
2019-06-01T07:07:58.333Z,43.10
2019-06-01T07:08:58.322Z,43.70
2019-06-01T07:09:58.306Z,42.30
2019-06-01T07:10:58.298Z,42.40
2019-06-01T07:11:58.288Z,40.70
2019-06-01T07:12:58.280Z,42.40
2019-06-01T07:13:58.282Z,40.40
2019-06-01T07:14:58.265Z,37.20
2019-06-01T07:15:58.247Z,38.20
2019-06-01T07:16:58.250Z,36.30
2019-06-01T07:17:58.230Z,38.30
2019-06-01T07:18:58.208Z,37.60
2019-06-01T07:19:58.204Z,37.10
2019-06-01T07:20:58.185Z,36.60
2019-06-01T07:21:58.215Z,34.40
2019-06-01T07:22:58.179Z,37.30
2019-06-01T07:23:58.154Z,36.30
2019-06-01T07:24:58.148Z,34.70
2019-06-01T07:25:58.172Z,33.50
2019-06-01T07:26:58.330Z,34.20
2019-06-01T07:27:58.125Z,33.50
2019-06-01T07:28:58.122Z,33.00
2019-06-01T07:29:58.089Z,31.60
2019-06-01T07:30:58.080Z,31.10
2019-06-01T07:31:58.063Z,33.00
2019-06-01T07:32:58.064Z,33.40
2019-06-01T07:33:58.047Z,32.00
2019-06-01T07:35:00.930Z,32.40
2019-06-01T07:35:58.039Z,31.80
2019-06-01T07:36:58.075Z,32.40
2019-06-01T07:37:58.016Z,31.80
2019-06-01T07:38:57.994Z,31.80
2019-06-01T07:39:57.989Z,30.90
2019-06-01T07:40:57.970Z,31.10
2019-06-01T07:41:58.113Z,28.80
2019-06-01T07:42:57.954Z,30.40
2019-06-01T07:43:57.945Z,29.90
2019-06-01T07:44:57.921Z,31.20
2019-06-01T07:45:57.951Z,30.00
2019-06-01T07:46:57.904Z,30.50
2019-06-01T07:47:57.889Z,30.20
2019-06-01T07:48:57.891Z,28.60
2019-06-01T07:49:57.880Z,29.20
2019-06-01T07:50:57.859Z,28.50
2019-06-01T07:51:57.881Z,28.50
2019-06-01T07:52:57.846Z,29.10
2019-06-01T07:53:57.838Z,28.90
2019-06-01T07:54:57.822Z,28.20
2019-06-01T07:55:57.811Z,27.30
2019-06-01T07:56:57.797Z,27.30
2019-06-01T07:57:57.783Z,27.30
2019-06-01T07:58:57.803Z,27.20
2019-06-01T07:59:57.756Z,28.10
2019-06-01T08:00:57.747Z,27.20
2019-06-01T08:01:57.778Z,26.80
2019-06-01T08:02:57.725Z,25.80
2019-06-01T08:03:57.718Z,26.60
2019-06-01T08:04:57.714Z,25.60
2019-06-01T08:05:57.693Z,26.10
2019-06-01T08:06:57.853Z,24.00
2019-06-01T08:07:57.679Z,23.70
2019-06-01T08:08:57.677Z,24.00
2019-06-01T08:09:57.772Z,24.00
2019-06-01T08:10:57.642Z,23.10
2019-06-01T08:11:57.628Z,23.40
2019-06-01T08:12:57.623Z,22.90
2019-06-01T08:13:57.618Z,22.80
2019-06-01T08:14:57.597Z,23.30
2019-06-01T08:15:57.585Z,24.60
2019-06-01T08:16:57.575Z,23.30
2019-06-01T08:17:57.572Z,23.60
2019-06-01T08:18:57.564Z,23.60
2019-06-01T08:19:57.565Z,23.10
2019-06-01T08:20:57.535Z,23.30
2019-06-01T08:21:57.553Z,22.20
2019-06-01T08:22:57.509Z,22.50
2019-06-01T08:23:57.504Z,22.50
2019-06-01T08:24:57.509Z,22.60
2019-06-01T08:25:57.477Z,23.10
2019-06-01T08:26:57.470Z,23.50
2019-06-01T08:27:57.488Z,22.00
2019-06-01T08:28:57.455Z,21.60
2019-06-01T08:29:57.441Z,21.40
2019-06-01T08:30:57.437Z,20.80
2019-06-01T08:31:57.416Z,20.50
2019-06-01T08:32:57.403Z,19.70
2019-06-01T08:33:57.393Z,20.10
2019-06-01T08:35:07.941Z,20.30
2019-06-01T08:35:58.365Z,20.00
2019-06-01T08:36:57.379Z,19.50
2019-06-01T08:37:57.347Z,19.90
2019-06-01T08:38:57.330Z,19.40
2019-06-01T08:39:59.230Z,19.30
2019-06-01T08:40:57.323Z,19.90
2019-06-01T08:41:57.310Z,20.00
2019-06-01T08:42:57.293Z,20.90
2019-06-01T08:43:57.292Z,21.10
2019-06-01T08:44:57.301Z,20.80
2019-06-01T08:45:57.256Z,20.00
2019-06-01T08:46:57.249Z,19.60
2019-06-01T08:47:57.231Z,20.10
2019-06-01T08:48:57.226Z,19.30
2019-06-01T08:49:57.217Z,20.60
2019-06-01T08:50:57.213Z,20.30
2019-06-01T08:51:57.237Z,20.40
2019-06-01T08:52:57.196Z,20.00
2019-06-01T08:53:57.166Z,20.10
2019-06-01T08:54:57.160Z,20.30
2019-06-01T08:55:57.145Z,20.20
2019-06-01T08:56:57.143Z,19.70
2019-06-01T08:57:57.135Z,21.40
2019-06-01T08:58:57.112Z,20.70
2019-06-01T08:59:57.123Z,21.20
2019-06-01T09:00:57.091Z,21.30
2019-06-01T09:01:57.088Z,21.10
2019-06-01T09:02:57.079Z,20.10
2019-06-01T09:03:57.064Z,20.10
2019-06-01T09:04:57.053Z,19.70
2019-06-01T09:05:57.041Z,19.50
2019-06-01T09:06:57.035Z,18.30
2019-06-01T09:07:57.017Z,19.70
2019-06-01T09:08:57.012Z,19.60
2019-06-01T09:09:57.006Z,18.80
2019-06-01T09:10:57.002Z,19.00
2019-06-01T09:11:57.007Z,20.20
2019-06-01T09:12:56.963Z,19.50
2019-06-01T09:13:56.955Z,20.20
2019-06-01T09:14:56.964Z,19.10
2019-06-01T09:15:56.958Z,19.90
2019-06-01T09:16:56.924Z,19.50
2019-06-01T09:17:56.934Z,19.80
2019-06-01T09:18:56.898Z,19.50
2019-06-01T09:19:56.898Z,19.10
2019-06-01T09:20:56.900Z,19.20
2019-06-01T09:21:56.872Z,20.10
2019-06-01T09:22:56.871Z,20.20
2019-06-01T09:23:56.862Z,19.80
2019-06-01T09:24:57.055Z,20.00
2019-06-01T09:25:56.832Z,19.70
2019-06-01T09:26:56.818Z,20.50
2019-06-01T09:27:56.806Z,19.90
2019-06-01T09:28:56.814Z,20.10
2019-06-01T09:29:56.785Z,19.50
2019-06-01T09:30:56.772Z,19.20
2019-06-01T09:31:56.769Z,18.80
2019-06-01T09:32:56.753Z,19.10
2019-06-01T09:33:56.768Z,18.90
2019-06-01T09:34:56.746Z,18.80
2019-06-01T09:35:56.729Z,20.00
2019-06-01T09:36:56.708Z,18.60
2019-06-01T09:37:56.697Z,18.20
2019-06-01T09:38:56.717Z,18.20
2019-06-01T09:39:56.684Z,18.50
2019-06-01T09:40:56.683Z,18.70
2019-06-01T09:41:56.659Z,18.40
2019-06-01T09:42:56.648Z,18.60
2019-06-01T09:43:56.664Z,18.70
2019-06-01T09:44:56.639Z,20.10
2019-06-01T09:45:56.619Z,19.20
2019-06-01T09:46:56.604Z,18.60
2019-06-01T09:47:56.719Z,18.60
2019-06-01T09:48:56.591Z,19.90
2019-06-01T09:49:56.593Z,18.60
2019-06-01T09:50:56.563Z,18.80
2019-06-01T09:51:56.638Z,18.60
2019-06-01T09:52:56.549Z,18.60
2019-06-01T09:53:56.532Z,17.80
2019-06-01T09:54:56.526Z,18.60
2019-06-01T09:55:56.519Z,19.20
2019-06-01T09:56:56.534Z,18.90
2019-06-01T09:57:56.490Z,19.20
2019-06-01T09:58:56.478Z,18.70
2019-06-01T09:59:56.461Z,18.50
2019-06-01T10:00:56.474Z,19.80
2019-06-01T10:01:56.455Z,18.20
2019-06-01T10:02:56.429Z,18.50
2019-06-01T10:03:56.423Z,19.50
2019-06-01T10:04:56.415Z,18.20
2019-06-01T10:06:01.737Z,18.40
2019-06-01T10:06:57.383Z,17.80
2019-06-01T10:07:56.381Z,18.20
2019-06-01T10:08:56.380Z,18.40
2019-06-01T10:09:56.358Z,17.80
2019-06-01T10:10:56.348Z,18.20
2019-06-01T10:11:56.361Z,17.80
2019-06-01T10:12:56.328Z,17.30
2019-06-01T10:13:56.314Z,17.40
2019-06-01T10:14:56.300Z,17.40
2019-06-01T10:15:56.291Z,18.10
2019-06-01T10:16:56.290Z,18.80
2019-06-01T10:17:56.304Z,18.70
2019-06-01T10:18:56.262Z,19.70
2019-06-01T10:19:56.260Z,18.90
2019-06-01T10:20:56.245Z,18.50
2019-06-01T10:21:56.230Z,18.00
2019-06-01T10:22:56.221Z,18.00
2019-06-01T10:23:56.224Z,18.50
2019-06-01T10:24:56.199Z,18.40
2019-06-01T10:25:56.190Z,17.60
2019-06-01T10:26:56.176Z,17.50
2019-06-01T10:27:56.179Z,16.30
2019-06-01T10:28:56.163Z,17.10
2019-06-01T10:29:56.144Z,18.50
2019-06-01T10:30:56.136Z,17.80
2019-06-01T10:31:56.122Z,19.70
2019-06-01T10:32:56.127Z,19.20
2019-06-01T10:33:56.149Z,19.60
2019-06-01T10:34:56.097Z,18.00
2019-06-01T10:35:56.081Z,18.90
2019-06-01T10:36:56.074Z,19.00
2019-06-01T10:37:56.076Z,18.40
2019-06-01T10:38:56.056Z,18.00
2019-06-01T10:39:56.054Z,18.50
2019-06-01T10:40:56.047Z,18.30
2019-06-01T10:41:56.022Z,18.20
2019-06-01T10:42:56.042Z,18.20
2019-06-01T10:43:56.001Z,18.70
2019-06-01T10:44:56.034Z,18.60
2019-06-01T10:45:55.985Z,18.50
2019-06-01T10:46:55.976Z,17.70
2019-06-01T10:47:55.977Z,18.00
2019-06-01T10:48:55.956Z,18.00
2019-06-01T10:49:55.949Z,19.20
2019-06-01T10:50:55.964Z,17.60
2019-06-01T10:51:55.931Z,17.70
2019-06-01T10:52:55.916Z,17.60
2019-06-01T10:53:55.907Z,17.80
2019-06-01T10:54:55.894Z,18.30
2019-06-01T10:55:55.885Z,17.20
2019-06-01T10:56:55.883Z,17.50
2019-06-01T10:57:55.910Z,17.20
2019-06-01T10:59:00.370Z,17.10
2019-06-01T10:59:55.845Z,17.10
2019-06-01T11:00:55.842Z,16.80
2019-06-01T11:01:55.834Z,16.80
2019-06-01T11:02:55.814Z,17.40
2019-06-01T11:03:55.846Z,16.90
2019-06-01T11:04:55.811Z,17.00
2019-06-01T11:05:55.787Z,16.80
2019-06-01T11:06:55.793Z,17.50
2019-06-01T11:07:55.778Z,17.20
2019-06-01T11:08:55.760Z,16.50
2019-06-01T11:09:55.744Z,16.80
2019-06-01T11:10:55.746Z,17.20
2019-06-01T11:11:55.733Z,17.60
2019-06-01T11:12:55.724Z,17.20
2019-06-01T11:13:55.724Z,16.90
2019-06-01T11:14:55.696Z,17.70
2019-06-01T11:15:55.695Z,17.30
2019-06-01T11:16:56.705Z,17.70
2019-06-01T11:17:55.672Z,17.40
2019-06-01T11:18:55.726Z,17.50
2019-06-01T11:19:55.655Z,17.60
2019-06-01T11:20:55.642Z,17.60
2019-06-01T11:21:55.634Z,18.10
2019-06-01T11:22:55.635Z,17.70
2019-06-01T11:23:55.613Z,17.90
2019-06-01T11:24:55.600Z,17.30
2019-06-01T11:25:55.609Z,17.80
2019-06-01T11:26:55.589Z,17.50
2019-06-01T11:27:55.579Z,17.60
2019-06-01T11:28:55.564Z,17.70
2019-06-01T11:29:55.566Z,13.60
2019-06-01T11:30:55.565Z,14.70
2019-06-01T11:31:55.534Z,17.30
2019-06-01T11:32:55.529Z,17.90
2019-06-01T11:33:55.531Z,17.70
2019-06-01T11:34:55.508Z,17.20
2019-06-01T11:35:55.518Z,17.30
2019-06-01T11:37:05.096Z,17.70
2019-06-01T11:37:56.476Z,17.50
2019-06-01T11:38:55.492Z,17.60
2019-06-01T11:39:55.498Z,16.90
2019-06-01T11:40:55.450Z,16.80
2019-06-01T11:41:55.443Z,17.00
2019-06-01T11:42:55.432Z,16.60
2019-06-01T11:43:55.437Z,17.40
2019-06-01T11:44:55.430Z,17.10
2019-06-01T11:45:55.411Z,17.20
2019-06-01T11:46:55.393Z,17.30
2019-06-01T11:47:55.384Z,17.80
2019-06-01T11:48:55.380Z,14.70
2019-06-01T11:49:55.374Z,16.90
2019-06-01T11:50:55.376Z,17.20
2019-06-01T11:51:55.351Z,17.10
2019-06-01T11:52:55.336Z,16.80
2019-06-01T11:53:55.328Z,16.90
2019-06-01T11:54:55.324Z,17.00
2019-06-01T11:55:55.321Z,17.30
2019-06-01T11:56:55.310Z,17.00
2019-06-01T11:57:55.287Z,16.90
2019-06-01T11:58:55.277Z,17.20
2019-06-01T11:59:55.292Z,17.70
2019-06-01T12:01:47.796Z,17.80
2019-06-01T12:02:47.792Z,18.00
2019-06-01T12:03:47.783Z,17.90
2019-06-01T12:04:47.762Z,18.00
2019-06-01T12:05:47.769Z,18.60
2019-06-01T12:06:47.749Z,17.60
2019-06-01T12:07:47.747Z,16.40
2019-06-01T12:08:47.727Z,17.10
2019-06-01T12:09:47.713Z,16.50
2019-06-01T12:10:47.843Z,17.20
2019-06-01T12:11:47.694Z,16.40
2019-06-01T12:12:47.698Z,15.00
2019-06-01T12:13:47.693Z,12.60
2019-06-01T12:14:47.667Z,17.80
2019-06-01T12:15:47.656Z,17.60
2019-06-01T12:16:47.649Z,18.00
2019-06-01T12:17:47.659Z,17.80
2019-06-01T12:18:47.632Z,16.70
2019-06-01T12:19:47.620Z,17.30
2019-06-01T12:20:47.605Z,17.10
2019-06-01T12:21:47.610Z,13.00
2019-06-01T12:22:47.592Z,17.20
2019-06-01T12:23:47.694Z,16.80
2019-06-01T12:24:47.569Z,16.80
2019-06-01T12:25:48.450Z,17.00
2019-06-01T12:26:47.690Z,16.70
2019-06-01T12:27:48.343Z,16.90
2019-06-01T12:28:47.901Z,16.80
2019-06-01T12:29:48.277Z,16.70
2019-06-01T12:30:47.945Z,17.10
2019-06-01T12:31:48.152Z,17.20
2019-06-01T12:32:48.705Z,16.50
2019-06-01T12:33:48.692Z,17.20
2019-06-01T12:34:48.502Z,17.10
2019-06-01T12:35:48.206Z,16.50
2019-06-01T12:36:48.442Z,16.10
2019-06-01T12:38:04.418Z,17.50
2019-06-01T12:38:48.465Z,17.10
2019-06-01T12:39:52.224Z,16.90
2019-06-01T12:40:48.419Z,17.10
2019-06-01T12:41:47.842Z,17.20
2019-06-01T12:42:47.775Z,18.10
2019-06-01T12:43:47.762Z,17.60
2019-06-01T12:44:47.850Z,17.30
2019-06-01T12:45:47.876Z,16.30
2019-06-01T12:46:47.347Z,17.60
2019-06-01T12:47:52.379Z,17.50
2019-06-01T12:48:48.462Z,17.70